Time;durP1;ratioP1;P1;durP2;ratioP2;P2;SDS_P1;SDS_P2;PMS_P1;PMS_P2;Temp;Humidity;BMP_temperature;BMP_pressure;BME280_temperature;BME280_humidity;BME280_pressure;Samples;Min_cycle;Max_cycle;Signal;HPM_P1;HPM_P2
2021/12/18 00:02:20;;;;;;;11.40;7.30;;;5.00;84.90;;;;;;4995995;28;20449;-47
2021/12/18 00:04:47;;;;;;;9.87;8.53;;;5.00;84.80;;;;;;4986021;28;20454;-47
2021/12/18 00:07:14;;;;;;;7.13;6.43;;;5.00;84.80;;;;;;5002570;28;20465;-46
2021/12/18 00:09:41;;;;;;;11.80;7.13;;;4.90;84.80;;;;;;4992718;28;20496;-46
2021/12/18 00:12:09;;;;;;;8.97;7.73;;;5.00;84.50;;;;;;4987326;28;20453;-46
2021/12/18 00:14:36;;;;;;;8.50;7.57;;;5.00;84.40;;;;;;4999968;28;20520;-46
2021/12/18 00:17:03;;;;;;;6.50;5.90;;;5.00;84.00;;;;;;4985183;28;20457;-46
2021/12/18 00:19:31;;;;;;;9.00;7.20;;;4.90;84.00;;;;;;4996287;28;20897;-46
2021/12/18 00:21:58;;;;;;;7.30;6.60;;;5.00;83.90;;;;;;4998860;28;20452;-46
2021/12/18 00:24:29;;;;;;;12.07;6.93;;;4.90;83.90;;;;;;4984597;28;20534;-47
2021/12/18 00:26:56;;;;;;;7.47;6.30;;;4.90;83.90;;;;;;4988624;28;20444;-46
2021/12/18 00:29:23;;;;;;;5.80;5.20;;;4.90;83.90;;;;;;4998146;28;20955;-46
2021/12/18 00:31:51;;;;;;;9.67;7.10;;;4.90;83.90;;;;;;4998723;28;20456;-46
2021/12/18 00:34:19;;;;;;;7.43;6.00;;;4.90;83.80;;;;;;4983402;28;20485;-46
2021/12/18 00:36:46;;;;;;;8.93;6.20;;;4.80;83.90;;;;;;5001268;28;20571;-46
2021/12/18 00:39:12;;;;;;;9.97;6.80;;;4.80;84.10;;;;;;4987228;28;20462;-46
2021/12/18 00:44:13;;;;;;;8.93;7.17;;;4.70;84.20;;;;;;5000534;28;20461;-46
2021/12/18 00:46:45;;;;;;;7.50;6.40;;;4.70;84.20;;;;;;4997631;28;20471;-46
2021/12/18 00:49:16;;;;;;;10.00;6.37;;;4.70;84.20;;;;;;4995593;28;20488;-46
2021/12/18 00:51:42;;;;;;;7.97;5.90;;;4.60;84.00;;;;;;5002675;28;20455;-46
2021/12/18 00:54:09;;;;;;;10.70;7.07;;;4.50;84.30;;;;;;4982116;28;20519;-46
2021/12/18 00:56:36;;;;;;;13.90;7.23;;;4.40;84.60;;;;;;4996424;28;20484;-46
2021/12/18 00:59:03;;;;;;;8.20;6.20;;;4.40;84.70;;;;;;4997166;28;20475;-46
2021/12/18 01:01:32;;;;;;;9.40;7.37;;;4.40;84.40;;;;;;5001851;28;20819;-46
2021/12/18 01:03:59;;;;;;;9.43;6.73;;;4.40;84.40;;;;;;4984265;28;20567;-46
2021/12/18 01:06:27;;;;;;;8.97;8.07;;;4.40;84.10;;;;;;4997079;28;20459;-46
2021/12/18 01:08:56;;;;;;;8.97;7.03;;;4.40;84.20;;;;;;4971750;28;20468;-46
2021/12/18 01:11:33;;;;;;;9.90;7.40;;;4.30;84.40;;;;;;4999715;28;20455;-46
2021/12/18 01:22:39;;;;;;;7.80;6.83;;;4.30;84.70;;;;;;5002510;28;20992;-46
2021/12/18 01:25:09;;;;;;;10.30;8.37;;;4.30;84.70;;;;;;5000337;28;20486;-50
2021/12/18 01:27:36;;;;;;;10.00;6.80;;;4.30;85.00;;;;;;5001746;28;20467;-50
2021/12/18 01:30:05;;;;;;;9.03;7.60;;;4.30;85.00;;;;;;4977578;28;20449;-50
2021/12/18 01:32:32;;;;;;;9.90;6.73;;;4.30;85.00;;;;;;5004987;28;20464;-50
2021/12/18 01:34:59;;;;;;;11.40;8.57;;;4.30;85.00;;;;;;5007046;28;20497;-50
2021/12/18 01:37:26;;;;;;;14.33;8.87;;;4.20;85.30;;;;;;4993675;28;20458;-50
2021/12/18 01:39:54;;;;;;;13.90;9.90;;;4.30;85.40;;;;;;4971570;28;20449;-49
2021/12/18 01:45:05;;;;;;;8.70;7.20;;;4.20;85.40;;;;;;5000516;28;20453;-50
2021/12/18 01:53:07;;;;;;;9.07;7.70;;;4.30;85.40;;;;;;5004655;28;20461;-49
2021/12/18 01:55:35;;;;;;;10.37;8.30;;;4.20;85.30;;;;;;4990085;28;21035;-50
2021/12/18 01:58:03;;;;;;;8.87;8.07;;;4.20;85.70;;;;;;5003246;28;20552;-50
2021/12/18 02:00:36;;;;;;;11.20;7.50;;;4.20;85.70;;;;;;5000619;28;20761;-50
2021/12/18 02:03:04;;;;;;;10.80;8.03;;;4.20;85.60;;;;;;5000882;28;20853;-50
2021/12/18 02:05:32;;;;;;;10.77;7.00;;;4.20;85.60;;;;;;5006830;28;20456;-50
2021/12/18 02:07:59;;;;;;;13.30;7.90;;;4.20;85.50;;;;;;5005926;28;20464;-50
2021/12/18 02:10:29;;;;;;;10.00;8.20;;;4.20;85.50;;;;;;4988948;28;20453;-50
2021/12/18 02:21:06;;;;;;;7.53;6.80;;;4.00;85.80;;;;;;5004793;28;20540;-50
2021/12/18 02:23:36;;;;;;;7.07;6.37;;;3.90;85.80;;;;;;5004809;28;20456;-50
2021/12/18 02:26:03;;;;;;;9.67;6.67;;;4.00;85.50;;;;;;4989696;28;20476;-49
2021/12/18 02:28:30;;;;;;;12.33;7.47;;;4.00;85.10;;;;;;5002653;28;20552;-50
2021/12/18 02:30:58;;;;;;;9.57;7.10;;;4.00;85.20;;;;;;5001722;28;20472;-49
2021/12/18 02:33:26;;;;;;;8.43;6.30;;;4.00;84.90;;;;;;4987401;28;20476;-50
2021/12/18 02:35:56;;;;;;;7.80;6.70;;;4.00;84.70;;;;;;4999933;28;20500;-50
2021/12/18 02:38:43;;;;;;;9.67;7.20;;;3.90;84.80;;;;;;4973640;28;20934;-49
2021/12/18 02:41:26;;;;;;;8.93;7.30;;;3.90;84.80;;;;;;5006337;28;20456;-50
2021/12/18 02:43:54;;;;;;;8.23;6.83;;;3.90;84.60;;;;;;5001506;28;20564;-50
2021/12/18 02:46:21;;;;;;;9.87;6.90;;;3.80;84.60;;;;;;5004024;28;20457;-50
2021/12/18 02:48:50;;;;;;;8.43;6.73;;;3.90;85.20;;;;;;5000195;28;20472;-50
2021/12/18 02:51:18;;;;;;;7.90;6.90;;;3.80;85.10;;;;;;5003426;28;20453;-49
2021/12/18 02:53:50;;;;;;;8.37;7.07;;;3.90;84.80;;;;;;4982284;28;20465;-49
2021/12/18 02:56:23;;;;;;;9.70;6.50;;;3.90;84.70;;;;;;5003910;28;20578;-49
2021/12/18 02:58:59;;;;;;;7.87;6.13;;;3.80;84.60;;;;;;5005887;28;20472;-50
2021/12/18 03:01:32;;;;;;;9.83;7.17;;;3.80;84.90;;;;;;5000596;28;20878;-50
2021/12/18 03:04:01;;;;;;;9.07;6.60;;;3.70;85.20;;;;;;5004354;28;20465;-50
2021/12/18 03:25:10;;;;;;;11.23;7.20;;;3.70;85.50;;;;;;5004887;28;20957;-50
2021/12/18 03:27:38;;;;;;;9.13;7.10;;;3.70;85.80;;;;;;5003160;28;21061;-50
2021/12/18 03:30:06;;;;;;;8.33;6.30;;;3.70;85.90;;;;;;4985694;28;20460;-50
2021/12/18 03:32:32;;;;;;;8.87;7.20;;;3.70;85.90;;;;;;5001235;28;20461;-50
2021/12/18 03:34:59;;;;;;;8.53;6.97;;;3.70;85.80;;;;;;4989979;28;20460;-50
2021/12/18 03:37:26;;;;;;;10.97;8.43;;;3.80;85.80;;;;;;5002741;28;20488;-49
2021/12/18 03:39:53;;;;;;;9.43;7.20;;;3.70;85.80;;;;;;5004052;28;20460;-50
2021/12/18 03:42:19;;;;;;;9.03;7.20;;;3.70;86.00;;;;;;5001686;28;20953;-50
2021/12/18 03:44:48;;;;;;;8.13;7.13;;;3.70;85.90;;;;;;4988228;28;20547;-49
2021/12/18 03:47:15;;;;;;;10.73;8.03;;;3.70;85.80;;;;;;4987363;28;20471;-48
2021/12/18 03:49:41;;;;;;;10.80;6.70;;;3.70;85.80;;;;;;4990771;28;20458;-48
2021/12/18 03:52:09;;;;;;;13.67;9.00;;;3.70;85.90;;;;;;4990186;28;20831;-48
2021/12/18 03:54:36;;;;;;;12.17;7.30;;;3.70;85.90;;;;;;5005764;28;20456;-48
2021/12/18 03:57:03;;;;;;;10.90;8.13;;;3.70;85.80;;;;;;4987330;28;20514;-48
2021/12/18 03:59:30;;;;;;;13.73;9.33;;;3.70;85.70;;;;;;5002157;28;20469;-48
2021/12/18 04:01:57;;;;;;;13.47;9.80;;;3.70;85.90;;;;;;5000786;28;20475;-48
2021/12/18 04:04:24;;;;;;;11.37;9.30;;;3.70;85.90;;;;;;5000633;28;20900;-48
2021/12/18 04:06:51;;;;;;;11.13;8.03;;;3.70;86.30;;;;;;4984650;28;20854;-48
2021/12/18 04:09:18;;;;;;;9.20;7.70;;;3.70;86.50;;;;;;4971902;28;20480;-49
2021/12/18 04:11:45;;;;;;;11.37;8.17;;;3.70;86.70;;;;;;4988773;28;21025;-48
2021/12/18 04:14:13;;;;;;;8.57;7.67;;;3.80;87.00;;;;;;4981179;28;20472;-48
2021/12/18 04:16:40;;;;;;;7.73;6.93;;;3.80;86.90;;;;;;4965186;28;20485;-48
2021/12/18 04:19:07;;;;;;;9.60;7.30;;;3.80;86.90;;;;;;5002390;28;21001;-49
2021/12/18 04:21:34;;;;;;;7.87;6.67;;;3.90;87.10;;;;;;5000287;28;20460;-49
2021/12/18 04:24:03;;;;;;;8.83;7.27;;;3.90;87.10;;;;;;4979559;28;20465;-48
2021/12/18 04:26:31;;;;;;;9.27;6.63;;;3.90;87.10;;;;;;5002589;28;20469;-48
2021/12/18 04:28:58;;;;;;;8.93;7.80;;;3.90;87.10;;;;;;5001368;28;20491;-49
2021/12/18 04:31:25;;;;;;;11.00;8.60;;;3.90;87.40;;;;;;4988678;28;20518;-48
2021/12/18 04:33:52;;;;;;;8.57;7.20;;;3.90;87.50;;;;;;4998669;28;20461;-49
2021/12/18 04:36:19;;;;;;;9.70;7.50;;;3.90;87.30;;;;;;4980250;28;20539;-48
2021/12/18 04:38:46;;;;;;;7.90;7.10;;;3.90;87.40;;;;;;4998599;28;20453;-48
2021/12/18 04:41:20;;;;;;;9.70;8.17;;;4.00;87.40;;;;;;5001327;28;20457;-49
2021/12/18 04:43:48;;;;;;;7.77;7.00;;;4.00;87.40;;;;;;5001795;28;21027;-49
2021/12/18 04:46:14;;;;;;;8.33;7.03;;;4.10;87.30;;;;;;4986193;28;20473;-48
2021/12/18 04:48:41;;;;;;;8.70;6.90;;;4.00;87.40;;;;;;4999678;28;20465;-48
2021/12/18 04:51:08;;;;;;;8.63;6.77;;;4.00;87.60;;;;;;4999400;28;20467;-48
2021/12/18 04:53:35;;;;;;;7.77;6.40;;;4.10;87.70;;;;;;5001529;28;20992;-48
2021/12/18 04:56:02;;;;;;;9.33;6.43;;;4.10;87.60;;;;;;5001722;28;20492;-49
2021/12/18 04:58:29;;;;;;;9.87;7.17;;;4.20;87.70;;;;;;4980192;28;20485;-49
2021/12/18 05:00:56;;;;;;;9.13;7.17;;;4.20;87.70;;;;;;4999589;28;20449;-49
2021/12/18 05:03:23;;;;;;;10.03;6.87;;;4.20;87.80;;;;;;5001910;28;20841;-49
2021/12/18 05:05:50;;;;;;;11.50;8.40;;;4.20;88.00;;;;;;5003523;28;20455;-49
2021/12/18 05:08:17;;;;;;;10.73;6.93;;;4.20;88.00;;;;;;5008230;28;20482;-48
2021/12/18 05:10:44;;;;;;;10.60;7.40;;;4.20;88.10;;;;;;5007777;28;20999;-49
2021/12/18 05:13:11;;;;;;;9.03;6.70;;;4.20;88.10;;;;;;4994392;28;20472;-49
2021/12/18 05:15:38;;;;;;;8.57;6.90;;;4.30;88.00;;;;;;4992903;28;20464;-49
2021/12/18 05:18:05;;;;;;;11.90;7.30;;;4.40;88.00;;;;;;4992404;28;20466;-48
2021/12/18 05:20:32;;;;;;;9.87;6.97;;;4.40;87.90;;;;;;4996851;28;20495;-49
2021/12/18 05:22:59;;;;;;;12.13;7.93;;;4.40;88.20;;;;;;5008507;28;20456;-48
2021/12/18 05:25:25;;;;;;;16.20;10.53;;;4.50;88.20;;;;;;5004380;28;20452;-49
2021/12/18 05:27:52;;;;;;;11.63;7.67;;;4.60;88.40;;;;;;4995350;28;20456;-49
2021/12/18 05:30:19;;;;;;;19.30;10.40;;;4.60;88.50;;;;;;4994326;28;20467;-49
2021/12/18 05:32:46;;;;;;;22.00;10.40;;;4.60;88.90;;;;;;5006755;28;20449;-49
2021/12/18 05:35:15;;;;;;;17.97;9.30;;;4.70;89.20;;;;;;5007742;28;20475;-49
2021/12/18 05:37:54;;;;;;;14.47;8.53;;;4.80;89.40;;;;;;4991027;28;20507;-49
2021/12/18 05:40:24;;;;;;;18.47;10.13;;;4.90;89.30;;;;;;5006204;28;20464;-49
2021/12/18 05:42:52;;;;;;;17.60;10.27;;;5.00;89.20;;;;;;5009515;28;20458;-49
2021/12/18 05:45:20;;;;;;;22.83;10.67;;;5.00;89.20;;;;;;4991262;28;20457;-48
2021/12/18 05:47:47;;;;;;;18.50;9.93;;;5.00;89.20;;;;;;5006112;28;20464;-49
2021/12/18 05:50:17;;;;;;;15.57;10.50;;;5.10;89.10;;;;;;4992395;28;20464;-49
2021/12/18 05:52:46;;;;;;;14.77;9.47;;;5.10;89.00;;;;;;5010157;28;20462;-49
2021/12/18 05:55:15;;;;;;;15.37;9.57;;;5.10;88.80;;;;;;5009844;28;20468;-49
2021/12/18 05:57:44;;;;;;;19.43;9.83;;;5.10;88.90;;;;;;5007404;28;20492;-49
2021/12/18 06:00:13;;;;;;;17.97;9.80;;;5.20;88.70;;;;;;4991434;28;20480;-49
2021/12/18 06:02:40;;;;;;;15.77;9.90;;;5.20;88.70;;;;;;5005961;28;20463;-49
2021/12/18 06:05:07;;;;;;;14.87;9.43;;;5.20;88.50;;;;;;5002910;28;20874;-49
2021/12/18 06:07:54;;;;;;;17.40;10.67;;;5.20;88.30;;;;;;5005841;28;20468;-49
2021/12/18 06:10:24;;;;;;;15.80;10.60;;;5.30;88.40;;;;;;5007389;28;20464;-49
2021/12/18 06:12:51;;;;;;;15.57;10.47;;;5.20;88.30;;;;;;5004514;28;20465;-49
2021/12/18 06:15:18;;;;;;;14.50;10.33;;;5.20;88.60;;;;;;5002092;28;20476;-49
2021/12/18 06:17:45;;;;;;;14.80;10.00;;;5.30;88.30;;;;;;4993313;28;20492;-49
2021/12/18 06:20:12;;;;;;;16.73;10.10;;;5.30;88.30;;;;;;5004356;28;20530;-49
2021/12/18 06:22:39;;;;;;;14.53;10.37;;;5.30;88.50;;;;;;4992598;28;20457;-49
2021/12/18 06:25:06;;;;;;;15.43;9.47;;;5.30;88.30;;;;;;4986435;28;20469;-49
2021/12/18 06:27:33;;;;;;;14.50;10.10;;;5.40;88.10;;;;;;5004825;28;20453;-49
2021/12/18 06:30:01;;;;;;;15.13;9.43;;;5.30;88.10;;;;;;5003075;28;20456;-49
2021/12/18 06:32:28;;;;;;;14.00;9.50;;;5.30;88.30;;;;;;5000612;28;20875;-48
2021/12/18 06:34:55;;;;;;;17.13;9.87;;;5.30;88.40;;;;;;5004813;28;20463;-49
2021/12/18 06:37:22;;;;;;;12.97;8.57;;;5.30;88.50;;;;;;5000808;28;20499;-49
2021/12/18 06:39:48;;;;;;;16.30;9.70;;;5.40;88.30;;;;;;5004660;28;20460;-49
2021/12/18 06:42:35;;;;;;;13.50;9.00;;;5.40;88.00;;;;;;5003042;28;20452;-49
2021/12/18 06:45:03;;;;;;;14.03;8.93;;;5.40;88.00;;;;;;5004857;28;21403;-49
2021/12/18 06:47:30;;;;;;;15.30;8.47;;;5.50;87.50;;;;;;5000901;28;20582;-49
2021/12/18 06:49:57;;;;;;;14.70;8.50;;;5.50;87.50;;;;;;5006189;28;20460;-48
2021/12/18 06:52:24;;;;;;;13.23;9.10;;;5.50;87.60;;;;;;5005768;28;20467;-49
2021/12/18 06:54:51;;;;;;;13.13;9.27;;;5.50;87.70;;;;;;5004535;28;20484;-49
2021/12/18 06:57:22;;;;;;;10.80;8.00;;;5.50;87.70;;;;;;5000024;28;20484;-49
2021/12/18 06:59:50;;;;;;;17.10;9.53;;;5.50;87.60;;;;;;5003638;28;20476;-49
2021/12/18 07:02:17;;;;;;;13.90;8.17;;;5.50;87.50;;;;;;4988870;28;20828;-49
2021/12/18 07:04:44;;;;;;;14.83;9.30;;;5.50;87.50;;;;;;5002555;28;21012;-48
2021/12/18 07:07:11;;;;;;;15.63;9.77;;;5.60;87.60;;;;;;5002896;28;20471;-49
2021/12/18 07:09:41;;;;;;;14.70;9.87;;;5.60;87.40;;;;;;4986755;28;20477;-50
2021/12/18 07:12:10;;;;;;;13.47;7.80;;;5.60;87.30;;;;;;5000008;28;20469;-47
2021/12/18 07:14:43;;;;;;;17.53;10.43;;;5.60;87.30;;;;;;4983540;28;20470;-47
2021/12/18 07:17:10;;;;;;;15.03;9.30;;;5.70;87.10;;;;;;4986094;28;20494;-47
2021/12/18 07:19:36;;;;;;;14.10;9.37;;;5.70;86.80;;;;;;4981963;28;20460;-47
2021/12/18 07:22:04;;;;;;;10.40;8.03;;;5.70;86.70;;;;;;4998686;28;20464;-47
2021/12/18 07:24:31;;;;;;;13.77;8.13;;;5.70;86.90;;;;;;4982146;28;20964;-48
2021/12/18 07:26:58;;;;;;;14.97;9.57;;;5.70;86.80;;;;;;4999621;28;20989;-47
2021/12/18 07:29:25;;;;;;;13.40;8.00;;;5.70;86.90;;;;;;4981938;28;20718;-47
2021/12/18 07:31:51;;;;;;;13.23;9.00;;;5.70;86.80;;;;;;4987283;28;20477;-47
2021/12/18 07:34:18;;;;;;;14.20;8.77;;;5.70;86.80;;;;;;4979798;28;20465;-47
2021/12/18 07:36:46;;;;;;;16.93;8.00;;;5.70;86.90;;;;;;4996447;28;21113;-48
2021/12/18 07:39:14;;;;;;;13.63;8.27;;;5.60;87.20;;;;;;5002897;28;20560;-48
2021/12/18 07:41:40;;;;;;;13.00;9.10;;;5.70;87.30;;;;;;4999685;28;20482;-47
2021/12/18 07:44:07;;;;;;;11.37;7.67;;;5.60;87.40;;;;;;5005084;28;20459;-48
2021/12/18 07:46:38;;;;;;;13.80;8.50;;;5.70;87.40;;;;;;5001877;28;20985;-48
2021/12/18 07:49:06;;;;;;;16.53;8.97;;;5.80;87.00;;;;;;4989204;28;20463;-47
2021/12/18 07:51:34;;;;;;;12.67;7.70;;;5.80;87.00;;;;;;5000254;28;20949;-46
2021/12/18 07:54:01;;;;;;;14.90;9.20;;;5.80;86.90;;;;;;5002227;28;20536;-46
2021/12/18 07:56:28;;;;;;;15.00;9.40;;;5.80;86.70;;;;;;4987339;28;20463;-46
2021/12/18 07:58:55;;;;;;;14.93;9.13;;;5.80;86.70;;;;;;4971403;28;20505;-46
2021/12/18 08:01:22;;;;;;;17.80;10.57;;;5.80;86.90;;;;;;4982021;28;21031;-46
2021/12/18 08:03:49;;;;;;;14.33;9.03;;;5.80;87.00;;;;;;5003142;28;20833;-47
2021/12/18 08:06:18;;;;;;;16.10;9.37;;;5.80;87.00;;;;;;4990524;28;20515;-46
2021/12/18 08:08:45;;;;;;;19.00;10.23;;;5.80;87.40;;;;;;5002781;28;20453;-46
2021/12/18 08:11:13;;;;;;;14.37;9.23;;;5.80;87.60;;;;;;5003414;28;20460;-46
2021/12/18 08:13:40;;;;;;;14.53;9.03;;;5.80;87.50;;;;;;5001074;28;20449;-46
2021/12/18 08:16:07;;;;;;;18.50;10.23;;;5.80;87.70;;;;;;5001682;28;20999;-46
2021/12/18 08:18:34;;;;;;;16.67;10.17;;;5.80;87.90;;;;;;5003368;28;20480;-47
2021/12/18 08:21:01;;;;;;;15.60;9.10;;;5.80;87.90;;;;;;5003519;28;20563;-46
2021/12/18 08:23:27;;;;;;;19.87;10.77;;;5.80;88.00;;;;;;4997015;28;20457;-46
2021/12/18 08:25:54;;;;;;;21.50;11.73;;;5.80;88.10;;;;;;4987853;28;20460;-47
2021/12/18 08:28:21;;;;;;;19.67;11.43;;;5.80;88.10;;;;;;4999239;28;20570;-47
2021/12/18 08:30:48;;;;;;;24.50;11.40;;;5.80;88.10;;;;;;5000997;28;20452;-46
2021/12/18 08:33:14;;;;;;;21.90;11.47;;;5.80;88.20;;;;;;5001189;28;20470;-46
2021/12/18 08:35:41;;;;;;;21.27;11.77;;;5.80;88.20;;;;;;5001826;28;20965;-47
2021/12/18 08:38:08;;;;;;;25.47;13.30;;;5.90;88.10;;;;;;4989351;28;20483;-47
2021/12/18 08:40:36;;;;;;;32.30;15.43;;;5.90;87.70;;;;;;4987940;28;21016;-47
2021/12/18 08:43:03;;;;;;;27.50;15.93;;;6.00;87.80;;;;;;5003768;28;20459;-47
2021/12/18 08:45:30;;;;;;;26.50;16.57;;;5.90;87.70;;;;;;4997482;28;20469;-47
2021/12/18 08:47:57;;;;;;;24.53;14.40;;;5.90;87.70;;;;;;4998662;28;20472;-47
2021/12/18 08:50:24;;;;;;;24.23;13.37;;;6.00;87.70;;;;;;4980132;28;20472;-47
2021/12/18 08:52:52;;;;;;;21.63;12.57;;;6.00;87.50;;;;;;4993229;28;20953;-47
2021/12/18 08:55:21;;;;;;;20.40;11.83;;;6.00;87.40;;;;;;4998084;28;20941;-47
2021/12/18 08:57:48;;;;;;;20.30;13.50;;;6.00;87.40;;;;;;5000181;28;20487;-47
2021/12/18 09:00:21;;;;;;;21.53;13.60;;;6.00;87.60;;;;;;4983955;28;20992;-47
2021/12/18 09:02:50;;;;;;;30.03;14.67;;;6.00;87.30;;;;;;4999718;28;20452;-47
2021/12/18 09:05:17;;;;;;;19.20;14.00;;;6.00;87.40;;;;;;4997273;28;21024;-47
2021/12/18 09:07:44;;;;;;;20.97;13.90;;;6.10;87.10;;;;;;4999691;28;22529;-47
2021/12/18 09:10:14;;;;;;;19.77;12.40;;;6.20;86.80;;;;;;5002375;28;21044;-47
2021/12/18 09:12:42;;;;;;;22.70;13.17;;;6.10;86.90;;;;;;4999268;28;20494;-47
2021/12/18 09:15:09;;;;;;;23.47;13.30;;;6.10;86.90;;;;;;5001524;28;20457;-47
2021/12/18 09:17:36;;;;;;;22.60;13.17;;;6.10;86.90;;;;;;4983940;28;20485;-47
2021/12/18 09:20:04;;;;;;;26.73;14.97;;;6.10;87.00;;;;;;4987496;28;20465;-47
2021/12/18 09:22:31;;;;;;;22.13;13.60;;;6.10;86.80;;;;;;4982158;28;20453;-47
2021/12/18 09:24:59;;;;;;;23.40;13.80;;;6.10;86.70;;;;;;4999264;28;20460;-47
2021/12/18 09:27:26;;;;;;;26.73;16.17;;;6.10;86.60;;;;;;5000027;28;20464;-47
2021/12/18 09:29:54;;;;;;;27.87;16.63;;;6.20;86.50;;;;;;4998902;28;21219;-46
2021/12/18 09:32:21;;;;;;;22.80;15.40;;;6.20;86.50;;;;;;4983476;28;20554;-47
2021/12/18 09:34:48;;;;;;;22.33;15.37;;;6.20;86.30;;;;;;5000397;28;20465;-47
2021/12/18 09:37:15;;;;;;;20.67;13.30;;;6.10;86.50;;;;;;4998227;28;21039;-47
2021/12/18 09:39:42;;;;;;;20.60;13.50;;;6.10;86.60;;;;;;4994879;28;20467;-47
2021/12/18 09:42:09;;;;;;;19.37;12.80;;;6.10;86.40;;;;;;4994460;28;21099;-47
2021/12/18 09:44:36;;;;;;;20.67;12.43;;;6.10;86.50;;;;;;5001398;28;20484;-46
2021/12/18 09:47:04;;;;;;;20.10;12.97;;;6.10;86.50;;;;;;4999879;28;20544;-47
2021/12/18 09:49:32;;;;;;;19.40;13.70;;;6.10;86.60;;;;;;4998216;28;20464;-47
2021/12/18 09:51:59;;;;;;;20.53;14.50;;;6.10;86.60;;;;;;4999170;28;20476;-47
2021/12/18 09:54:26;;;;;;;20.70;12.60;;;6.20;86.60;;;;;;4988108;28;20465;-46
2021/12/18 09:56:53;;;;;;;18.03;12.73;;;6.20;86.60;;;;;;5001289;28;20457;-47
2021/12/18 09:59:20;;;;;;;17.63;11.50;;;6.20;86.10;;;;;;4985021;28;21023;-47
2021/12/18 10:01:47;;;;;;;17.10;11.10;;;6.20;86.20;;;;;;5004412;28;20448;-46
2021/12/18 10:04:34;;;;;;;20.63;13.40;;;6.20;86.20;;;;;;5001973;28;20462;-47
2021/12/18 10:07:21;;;;;;;18.17;12.00;;;6.20;86.20;;;;;;5002905;28;20961;-46
2021/12/18 10:09:51;;;;;;;19.43;12.60;;;6.30;86.20;;;;;;4981817;28;20463;-46
2021/12/18 10:12:21;;;;;;;18.80;13.47;;;6.30;86.20;;;;;;5000667;28;20449;-49
2021/12/18 10:14:58;;;;;;;20.07;13.40;;;6.30;86.00;;;;;;4988494;28;20478;-48
2021/12/18 10:17:28;;;;;;;19.00;12.90;;;6.30;85.90;;;;;;5002751;28;20996;-46
2021/12/18 10:20:10;;;;;;;19.03;12.80;;;6.30;85.90;;;;;;4982179;28;20454;-45
2021/12/18 10:22:43;;;;;;;16.97;12.70;;;6.20;86.00;;;;;;5001369;28;20456;-46
2021/12/18 10:25:10;;;;;;;18.83;12.30;;;6.20;86.00;;;;;;4984791;28;20454;-48
2021/12/18 10:27:38;;;;;;;21.80;13.63;;;6.30;85.80;;;;;;5003069;28;20567;-46
2021/12/18 10:30:16;;;;;;;16.33;11.47;;;6.30;85.60;;;;;;4973986;28;20455;-48
2021/12/18 10:33:04;;;;;;;18.30;11.93;;;6.30;85.60;;;;;;4988068;28;20450;-48
2021/12/18 10:35:41;;;;;;;15.90;11.80;;;6.30;85.50;;;;;;4998195;28;20934;-46
2021/12/18 10:38:10;;;;;;;17.77;12.70;;;6.30;85.30;;;;;;5004168;28;20591;-46
2021/12/18 10:40:47;;;;;;;19.23;11.90;;;6.30;85.30;;;;;;5000602;28;20445;-46
2021/12/18 10:43:15;;;;;;;20.13;12.20;;;6.30;85.40;;;;;;5002274;28;21035;-46
2021/12/18 10:45:42;;;;;;;19.47;12.33;;;6.30;85.30;;;;;;4987783;28;20467;-47
2021/12/18 10:48:13;;;;;;;20.20;12.53;;;6.30;85.30;;;;;;5000672;28;20453;-46
2021/12/18 10:50:48;;;;;;;20.90;13.03;;;6.30;85.50;;;;;;5004369;28;20471;-46
2021/12/18 10:53:17;;;;;;;18.07;12.30;;;6.30;85.50;;;;;;5001930;28;20961;-46
2021/12/18 10:55:49;;;;;;;20.00;12.60;;;6.30;85.40;;;;;;4987912;28;20459;-46
2021/12/18 10:58:20;;;;;;;13.37;8.50;;;6.40;85.30;;;;;;5000696;28;20571;-46
2021/12/18 11:00:53;;;;;;;14.50;9.60;;;6.50;85.30;;;;;;4999842;28;20544;-47
2021/12/18 11:03:34;;;;;;;15.87;10.37;;;6.50;85.10;;;;;;4998345;28;20544;-47
2021/12/18 11:06:01;;;;;;;19.03;12.20;;;6.40;85.40;;;;;;5000229;28;20457;-46
2021/12/18 11:08:28;;;;;;;21.87;14.03;;;6.40;85.40;;;;;;4999603;28;20463;-47
2021/12/18 11:13:51;;;;;;;19.50;13.20;;;6.40;85.20;;;;;;5002916;28;20930;-47
2021/12/18 11:16:19;;;;;;;19.43;13.20;;;6.40;85.20;;;;;;5001323;28;20463;-47
2021/12/18 11:18:47;;;;;;;23.07;14.43;;;6.40;85.20;;;;;;4999515;28;20704;-47
2021/12/18 11:21:14;;;;;;;23.50;14.27;;;6.40;85.30;;;;;;4988168;28;20475;-47
2021/12/18 11:24:08;;;;;;;20.20;14.00;;;6.50;85.30;;;;;;5000343;28;20469;-47
2021/12/18 11:26:50;;;;;;;22.70;14.87;;;6.50;85.30;;;;;;5000062;28;20587;-46
2021/12/18 11:29:50;;;;;;;20.93;13.03;;;6.50;85.00;;;;;;4996291;28;20856;-47
2021/12/18 11:32:23;;;;;;;22.57;13.77;;;6.50;85.00;;;;;;4999466;28;20466;-46
2021/12/18 11:34:53;;;;;;;22.27;14.17;;;6.40;85.10;;;;;;4980650;28;20562;-47
2021/12/18 11:37:21;;;;;;;22.03;15.30;;;6.40;85.20;;;;;;4999067;28;20526;-47
2021/12/18 11:39:50;;;;;;;23.17;14.20;;;6.40;85.20;;;;;;4989293;28;20982;-46
2021/12/18 11:42:18;;;;;;;22.60;15.37;;;6.40;85.20;;;;;;5003738;28;20456;-47
2021/12/18 11:44:54;;;;;;;26.90;16.00;;;6.40;85.30;;;;;;4999382;28;20893;-47
2021/12/18 11:47:24;;;;;;;22.87;15.17;;;6.40;85.40;;;;;;5002130;28;20451;-47
2021/12/18 11:49:54;;;;;;;22.07;14.60;;;6.50;85.20;;;;;;5002042;28;20545;-47
2021/12/18 11:52:21;;;;;;;20.27;13.50;;;6.50;85.00;;;;;;4999938;28;20483;-47
2021/12/18 11:54:55;;;;;;;23.80;14.80;;;6.50;85.20;;;;;;4997604;28;20535;-47
2021/12/18 11:57:50;;;;;;;17.90;11.00;;;6.40;85.20;;;;;;4980026;28;20495;-47
2021/12/18 12:00:22;;;;;;;18.33;11.83;;;6.50;85.10;;;;;;4983663;28;20461;-47
2021/12/18 12:02:57;;;;;;;17.47;13.17;;;6.40;85.10;;;;;;4999940;28;20544;-47
2021/12/18 12:05:46;;;;;;;21.90;13.97;;;6.40;85.00;;;;;;4999823;28;20451;-47
2021/12/18 12:08:39;;;;;;;19.73;13.33;;;6.40;85.10;;;;;;4998754;28;20553;-47
2021/12/18 12:11:16;;;;;;;21.87;14.37;;;6.40;85.00;;;;;;5000954;28;20459;-47
2021/12/18 12:14:08;;;;;;;19.27;13.30;;;6.40;85.10;;;;;;4982536;28;20452;-47
2021/12/18 12:16:45;;;;;;;22.00;14.23;;;6.50;84.90;;;;;;4998033;28;20534;-47
2021/12/18 12:19:14;;;;;;;21.73;13.67;;;6.50;85.10;;;;;;5000001;28;20500;-47
2021/12/18 12:21:51;;;;;;;20.53;12.80;;;6.50;84.90;;;;;;5001286;28;20479;-47
2021/12/18 12:24:20;;;;;;;19.70;13.40;;;6.50;85.20;;;;;;4981087;28;20460;-47
2021/12/18 12:26:48;;;;;;;19.97;11.23;;;6.50;85.30;;;;;;4992571;28;20559;-46
2021/12/18 12:29:16;;;;;;;17.27;10.83;;;6.60;85.30;;;;;;5004118;28;20555;-46
2021/12/18 12:32:07;;;;;;;15.43;10.77;;;6.50;85.40;;;;;;4999903;28;20491;-47
2021/12/18 12:34:37;;;;;;;12.33;9.43;;;6.50;85.40;;;;;;4997935;28;21041;-46
2021/12/18 12:37:22;;;;;;;17.00;11.50;;;6.60;85.30;;;;;;4984192;28;20550;-46
2021/12/18 12:39:53;;;;;;;18.33;12.53;;;6.60;85.20;;;;;;5000482;28;20587;-46
2021/12/18 12:42:20;;;;;;;18.07;11.23;;;6.50;85.00;;;;;;4996388;28;20453;-47
2021/12/18 12:44:53;;;;;;;20.57;13.37;;;6.50;85.00;;;;;;5001462;28;20454;-46
2021/12/18 12:47:28;;;;;;;18.80;9.87;;;6.50;85.00;;;;;;4988350;28;20455;-47
2021/12/18 12:50:01;;;;;;;16.23;10.93;;;6.50;84.80;;;;;;5001453;28;20456;-47
2021/12/18 12:52:29;;;;;;;14.60;10.17;;;6.50;84.70;;;;;;5000474;28;20495;-47
2021/12/18 12:55:03;;;;;;;14.87;8.87;;;6.50;84.70;;;;;;5002823;28;20487;-46
2021/12/18 12:57:30;;;;;;;15.33;9.00;;;6.50;84.90;;;;;;4996070;28;20803;-46
2021/12/18 13:00:06;;;;;;;12.43;8.37;;;6.50;85.00;;;;;;4997753;28;20523;-46
2021/12/18 13:02:36;;;;;;;16.07;9.10;;;6.50;84.90;;;;;;4999689;28;20532;-47
2021/12/18 13:05:07;;;;;;;16.77;8.67;;;6.50;85.00;;;;;;4997250;28;20478;-46
2021/12/18 13:07:43;;;;;;;18.43;10.57;;;6.50;85.00;;;;;;4996573;28;20900;-47
2021/12/18 13:10:10;;;;;;;12.23;8.17;;;6.50;84.80;;;;;;4999587;28;20471;-47
2021/12/18 13:12:55;;;;;;;14.20;8.20;;;6.50;84.80;;;;;;4990492;28;20899;-47
2021/12/18 13:15:23;;;;;;;12.20;7.70;;;6.50;84.70;;;;;;4988073;28;20449;-46
2021/12/18 13:18:09;;;;;;;14.37;8.10;;;6.50;84.80;;;;;;5003726;28;20457;-46
2021/12/18 13:20:48;;;;;;;16.70;8.47;;;6.40;85.00;;;;;;5000273;28;20872;-47
2021/12/18 13:23:18;;;;;;;18.23;9.93;;;6.40;85.10;;;;;;4991753;28;20487;-46
2021/12/18 13:25:46;;;;;;;13.37;8.87;;;6.40;85.20;;;;;;5000119;28;20453;-48
2021/12/18 13:28:13;;;;;;;14.93;9.47;;;6.40;85.20;;;;;;5005741;28;20780;-47
2021/12/18 13:30:41;;;;;;;16.73;9.87;;;6.50;85.20;;;;;;5002864;28;20459;-47
2021/12/18 13:33:09;;;;;;;14.50;9.53;;;6.50;85.20;;;;;;4993082;28;20551;-47
2021/12/18 13:35:38;;;;;;;15.33;9.47;;;6.50;84.90;;;;;;5003277;28;20463;-48
2021/12/18 13:38:08;;;;;;;13.70;10.13;;;6.50;85.00;;;;;;4993964;28;20487;-47
2021/12/18 13:40:48;;;;;;;15.17;8.53;;;6.50;85.20;;;;;;5004373;28;20531;-48
2021/12/18 13:43:17;;;;;;;16.20;9.00;;;6.50;84.90;;;;;;4984023;28;20463;-48
2021/12/18 13:45:49;;;;;;;14.07;9.03;;;6.50;85.00;;;;;;5003374;28;21038;-47
2021/12/18 13:48:17;;;;;;;13.80;9.60;;;6.50;85.20;;;;;;5001014;28;20543;-48